Time;durP1;ratioP1;P1;durP2;ratioP2;P2;SDS_P1;SDS_P2;PMS_P1;PMS_P2;Temp;Humidity;BMP_temperature;BMP_pressure;BME280_temperature;BME280_humidity;BME280_pressure;Samples;Min_cycle;Max_cycle;Signal;HPM_P1;HPM_P2
2021/10/16 00:00:24;;;;;;;;;;;8.80;99.90;;;;;;5071025;28;19912;-72
2021/10/16 00:02:49;;;;;;;;;;;8.90;63.60;;;;;;5071113;28;19928;-72
2021/10/16 00:05:15;;;;;;;;;;;8.90;21.50;;;;;;5072009;28;19916;-73
2021/10/16 00:07:40;;;;;;;;;;;8.90;1.00;;;;;;5072071;28;20455;-72
2021/10/16 00:10:06;;;;;;;;;;;8.90;3.00;;;;;;5071591;28;19921;-72
2021/10/16 00:12:32;;;;;;;;;;;8.90;1.00;;;;;;5069720;28;19948;-74
2021/10/16 00:14:57;;;;;;;;;;;8.90;1.00;;;;;;5070723;28;19920;-73
2021/10/16 00:17:23;;;;;;;;;;;9.00;1.00;;;;;;5071737;28;19916;-73
2021/10/16 00:19:49;;;;;;;;;;;9.00;1.00;;;;;;5071539;28;20331;-72
2021/10/16 00:22:14;;;;;;;;;;;9.00;1.00;;;;;;5070511;28;19912;-73
2021/10/16 00:24:40;;;;;;;;;;;9.10;1.00;;;;;;5071449;28;19916;-72
2021/10/16 00:27:05;;;;;;;;;;;9.10;1.00;;;;;;5070378;28;20026;-72
2021/10/16 00:29:31;;;;;;;;;;;9.00;1.00;;;;;;5075912;28;20289;-71
2021/10/16 00:31:57;;;;;;;;;;;9.00;1.00;;;;;;5071072;28;19917;-72
2021/10/16 00:34:22;;;;;;;;;;;9.00;1.00;;;;;;5071043;28;19917;-71
2021/10/16 00:36:48;;;;;;;;;;;9.00;1.00;;;;;;5073709;28;19912;-71
2021/10/16 00:39:13;;;;;;;;;;;9.00;1.00;;;;;;5075386;28;20377;-73
2021/10/16 00:41:39;;;;;;;;;;;9.00;1.00;;;;;;5071090;28;19984;-73
2021/10/16 00:44:10;;;;;;;;;;;9.00;1.00;;;;;;5068733;28;19912;-73
2021/10/16 00:46:35;;;;;;;;;;;9.00;1.00;;;;;;5070664;28;19920;-72
2021/10/16 00:49:01;;;;;;;;;;;9.10;1.00;;;;;;5070248;28;20304;-71
2021/10/16 00:51:26;;;;;;;;;;;9.20;1.00;;;;;;5070941;28;19912;-73
2021/10/16 00:53:52;;;;;;;;;;;9.10;1.00;;;;;;5069743;28;19962;-73
2021/10/16 00:56:17;;;;;;;;;;;9.10;1.00;;;;;;5070870;28;19922;-72
2021/10/16 00:58:43;;;;;;;;;;;9.10;1.00;;;;;;5069152;28;20432;-72
2021/10/16 01:01:09;;;;;;;;;;;9.10;1.00;;;;;;5067577;28;19921;-73
2021/10/16 01:03:34;;;;;;;;;;;9.10;1.00;;;;;;5068316;28;19923;-73
2021/10/16 01:06:00;;;;;;;;;;;9.10;1.00;;;;;;5074693;28;19912;-72
2021/10/16 01:08:26;;;;;;;;;;;9.10;1.00;;;;;;5082895;28;19985;-71
2021/10/16 01:10:51;;;;;;;;;;;9.10;1.00;;;;;;5070736;28;19913;-72
2021/10/16 01:13:17;;;;;;;;;;;9.10;1.00;;;;;;5067642;28;19924;-72
2021/10/16 01:15:44;;;;;;;;;;;9.20;1.00;;;;;;5069665;28;19913;-72
2021/10/16 01:18:12;;;;;;;;;;;9.10;99.90;;;;;;5070165;28;19963;-73
2021/10/16 01:20:39;;;;;;;;;;;9.10;99.90;;;;;;5069810;28;20332;-73
2021/10/16 01:23:04;;;;;;;;;;;9.10;99.90;;;;;;5068155;28;19966;-71
2021/10/16 01:25:30;;;;;;;;;;;9.10;1.00;;;;;;5069599;28;19916;-71
2021/10/16 01:27:56;;;;;;;;;;;9.10;99.90;;;;;;5069787;28;20356;-72
2021/10/16 01:30:23;;;;;;;;;;;9.10;99.90;;;;;;5069426;28;19924;-72
2021/10/16 01:32:49;;;;;;;;;;;9.20;99.90;;;;;;5069049;28;19931;-71
2021/10/16 01:35:14;;;;;;;;;;;9.20;99.90;;;;;;5069292;28;19912;-71
2021/10/16 01:37:41;;;;;;;;;;;9.20;1.00;;;;;;5076946;28;19931;-73
2021/10/16 01:40:08;;;;;;;;;;;9.20;1.00;;;;;;5069692;28;19912;-71
2021/10/16 01:42:35;;;;;;;;;;;9.20;1.00;;;;;;5068334;28;20370;-73
2021/10/16 01:45:00;;;;;;;;;;;9.20;1.00;;;;;;5068646;28;20349;-73
2021/10/16 01:47:26;;;;;;;;;;;9.10;1.00;;;;;;5068610;28;19978;-73
2021/10/16 01:49:54;;;;;;;;;;;9.20;1.00;;;;;;5069055;28;19928;-73
2021/10/16 01:52:19;;;;;;;;;;;9.10;1.00;;;;;;5068948;28;19912;-72
2021/10/16 01:54:45;;;;;;;;;;;9.20;1.00;;;;;;5069245;28;19928;-73
2021/10/16 01:57:10;;;;;;;;;;;9.20;99.90;;;;;;5067904;28;19970;-70
2021/10/16 01:59:36;;;;;;;;;;;9.10;1.00;;;;;;5068094;28;19916;-73
2021/10/16 02:02:01;;;;;;;;;;;9.00;1.00;;;;;;5068602;28;19912;-69
2021/10/16 02:04:27;;;;;;;;;;;9.00;1.00;;;;;;5069243;28;20019;-73
2021/10/16 02:06:52;;;;;;;;;;;9.00;1.00;;;;;;5069388;28;19916;-73
2021/10/16 02:09:17;;;;;;;;;;;8.90;1.00;;;;;;5068654;28;20397;-71
2021/10/16 02:11:43;;;;;;;;;;;8.80;1.00;;;;;;5069428;28;19917;-72
2021/10/16 02:14:09;;;;;;;;;;;8.70;1.00;;;;;;5067254;28;20377;-73
2021/10/16 02:16:34;;;;;;;;;;;8.70;1.00;;;;;;5069255;28;20392;-73
2021/10/16 02:19:00;;;;;;;;;;;8.70;1.00;;;;;;5069064;28;20101;-72
2021/10/16 02:21:26;;;;;;;;;;;8.80;1.00;;;;;;5068733;28;19925;-73
2021/10/16 02:23:51;;;;;;;;;;;8.80;1.00;;;;;;5067669;28;20013;-72
2021/10/16 02:26:17;;;;;;;;;;;8.80;1.00;;;;;;5069211;28;19927;-72
2021/10/16 02:28:42;;;;;;;;;;;8.80;1.00;;;;;;5072217;28;19916;-72
2021/10/16 02:31:08;;;;;;;;;;;8.80;1.00;;;;;;5079715;28;19962;-71
2021/10/16 02:33:33;;;;;;;;;;;8.90;1.00;;;;;;5067441;28;19939;-73
2021/10/16 02:35:59;;;;;;;;;;;8.90;1.00;;;;;;5069661;28;19923;-73
2021/10/16 02:38:25;;;;;;;;;;;8.90;1.00;;;;;;5073624;28;20526;-73
2021/10/16 02:40:50;;;;;;;;;;;9.00;1.00;;;;;;5071176;28;19923;-73
2021/10/16 02:43:16;;;;;;;;;;;9.00;1.00;;;;;;5067282;28;20069;-73
2021/10/16 02:45:41;;;;;;;;;;;9.00;1.00;;;;;;5068626;28;19916;-73
2021/10/16 02:48:07;;;;;;;;;;;9.10;1.00;;;;;;5067666;28;19966;-73
2021/10/16 02:50:32;;;;;;;;;;;9.10;1.00;;;;;;5068528;28;19920;-71
2021/10/16 02:52:58;;;;;;;;;;;9.10;1.00;;;;;;5067631;28;19913;-72
2021/10/16 02:55:23;;;;;;;;;;;9.10;1.00;;;;;;5067183;28;20031;-73
2021/10/16 02:57:49;;;;;;;;;;;9.20;1.00;;;;;;5067122;28;19917;-72
2021/10/16 03:00:14;;;;;;;;;;;9.20;1.00;;;;;;5067197;28;19917;-73
2021/10/16 03:02:40;;;;;;;;;;;9.20;1.00;;;;;;5067735;28;19916;-72
2021/10/16 03:05:06;;;;;;;;;;;9.30;1.00;;;;;;5068515;28;19964;-73
2021/10/16 03:07:31;;;;;;;;;;;9.30;1.00;;;;;;5068146;28;19924;-72
2021/10/16 03:09:57;;;;;;;;;;;9.30;1.00;;;;;;5068138;28;19999;-72
2021/10/16 03:12:23;;;;;;;;;;;9.30;1.00;;;;;;5066282;28;19922;-73
2021/10/16 03:14:48;;;;;;;;;;;9.30;1.00;;;;;;5067509;28;20010;-73
2021/10/16 03:17:14;;;;;;;;;;;9.40;99.90;;;;;;5068164;28;20326;-73
2021/10/16 03:19:40;;;;;;;;;;;9.30;99.90;;;;;;5067861;28;20064;-72
2021/10/16 03:22:07;;;;;;;;;;;9.40;99.90;;;;;;5067065;28;20431;-72
2021/10/16 03:24:33;;;;;;;;;;;9.40;1.00;;;;;;5068118;28;20455;-73
2021/10/16 03:26:59;;;;;;;;;;;9.40;1.00;;;;;;5067522;28;19920;-72
2021/10/16 03:29:25;;;;;;;;;;;9.40;1.00;;;;;;5060674;28;19938;-72
2021/10/16 03:31:50;;;;;;;;;;;9.40;1.00;;;;;;5067363;28;20330;-72
2021/10/16 03:34:16;;;;;;;;;;;9.40;1.00;;;;;;5068006;28;20004;-71
2021/10/16 03:36:41;;;;;;;;;;;9.40;1.00;;;;;;5068133;28;19917;-73
2021/10/16 03:39:07;;;;;;;;;;;9.40;1.00;;;;;;5066668;28;19973;-73
2021/10/16 03:41:32;;;;;;;;;;;9.40;1.00;;;;;;5067953;28;20379;-72
2021/10/16 03:43:58;;;;;;;;;;;9.30;1.00;;;;;;5065216;28;19916;-71
2021/10/16 03:46:23;;;;;;;;;;;9.30;1.00;;;;;;5067412;28;19971;-74
2021/10/16 03:48:49;;;;;;;;;;;9.20;1.00;;;;;;5067569;28;19920;-73
2021/10/16 03:51:14;;;;;;;;;;;9.10;49.30;;;;;;5067757;28;20023;-72
2021/10/16 03:53:40;;;;;;;;;;;9.20;99.90;;;;;;5066833;28;20585;-73
2021/10/16 03:56:05;;;;;;;;;;;9.20;99.90;;;;;;5067276;28;19953;-73
2021/10/16 03:58:31;;;;;;;;;;;9.20;99.90;;;;;;5060765;28;20016;-72
2021/10/16 04:01:01;;;;;;;;;;;9.20;99.90;;;;;;5059461;28;19920;-72
2021/10/16 04:03:26;;;;;;;;;;;9.30;99.90;;;;;;5066982;28;19921;-73
2021/10/16 04:05:52;;;;;;;;;;;9.30;99.90;;;;;;5072562;28;20333;-73
2021/10/16 04:08:17;;;;;;;;;;;9.30;99.90;;;;;;5076765;28;20253;-72
2021/10/16 04:10:45;;;;;;;;;;;9.40;99.90;;;;;;5067558;28;19912;-71
2021/10/16 04:13:10;;;;;;;;;;;9.40;92.80;;;;;;5066963;28;19917;-71
2021/10/16 04:15:36;;;;;;;;;;;9.50;1.00;;;;;;5071084;28;19923;-73
2021/10/16 04:18:02;;;;;;;;;;;9.40;1.00;;;;;;5070843;28;19913;-73
2021/10/16 04:20:27;;;;;;;;;;;9.50;1.00;;;;;;5071256;28;20366;-72
2021/10/16 04:22:53;;;;;;;;;;;9.50;1.00;;;;;;5070174;28;19920;-72
2021/10/16 04:25:18;;;;;;;;;;;9.60;1.00;;;;;;5071039;28;19913;-73
2021/10/16 04:27:44;;;;;;;;;;;9.60;1.00;;;;;;5073918;28;19961;-73
2021/10/16 04:30:09;;;;;;;;;;;9.60;1.00;;;;;;5072037;28;19913;-72
2021/10/16 04:32:35;;;;;;;;;;;9.60;1.00;;;;;;5070240;28;19917;-73
2021/10/16 04:35:05;;;;;;;;;;;9.60;1.00;;;;;;5069352;28;20031;-73
2021/10/16 04:37:31;;;;;;;;;;;9.60;1.00;;;;;;5072744;28;19912;-73
2021/10/16 04:39:56;;;;;;;;;;;9.60;1.00;;;;;;5070612;28;19927;-73
2021/10/16 04:42:22;;;;;;;;;;;9.60;1.00;;;;;;5068926;28;19924;-73
2021/10/16 04:44:48;;;;;;;;;;;9.60;1.00;;;;;;5070086;28;19958;-71
2021/10/16 04:47:13;;;;;;;;;;;9.60;1.00;;;;;;5070937;28;20547;-73
2021/10/16 04:49:39;;;;;;;;;;;9.60;33.30;;;;;;5070778;28;19912;-73
2021/10/16 04:52:06;;;;;;;;;;;9.70;1.00;;;;;;5069776;28;19912;-73
2021/10/16 04:54:32;;;;;;;;;;;9.70;1.00;;;;;;5068848;28;19994;-72
2021/10/16 04:56:57;;;;;;;;;;;9.60;99.90;;;;;;5070153;28;19942;-72
2021/10/16 04:59:24;;;;;;;;;;;9.70;99.90;;;;;;5069382;28;19912;-73
2021/10/16 05:01:50;;;;;;;;;;;9.70;99.90;;;;;;5070287;28;20385;-72
2021/10/16 05:04:15;;;;;;;;;;;9.70;99.90;;;;;;5070642;28;19999;-73
2021/10/16 05:06:40;;;;;;;;;;;9.70;99.90;;;;;;5070491;28;19960;-72
2021/10/16 05:09:06;;;;;;;;;;;9.70;99.90;;;;;;5070478;28;20331;-72
2021/10/16 05:11:31;;;;;;;;;;;9.80;99.90;;;;;;5071066;28;19916;-73
2021/10/16 05:13:57;;;;;;;;;;;9.70;99.90;;;;;;5068522;28;20385;-74
2021/10/16 05:16:22;;;;;;;;;;;9.70;99.90;;;;;;5070671;28;19920;-69
2021/10/16 05:18:48;;;;;;;;;;;9.60;99.90;;;;;;5070746;28;19912;-74
2021/10/16 05:21:13;;;;;;;;;;;9.60;1.00;;;;;;5070631;28;20358;-74
2021/10/16 05:23:39;;;;;;;;;;;9.60;1.00;;;;;;5068780;28;19920;-73
2021/10/16 05:26:04;;;;;;;;;;;9.60;1.00;;;;;;5070580;28;19927;-72
2021/10/16 05:28:30;;;;;;;;;;;9.60;1.00;;;;;;5070197;28;19912;-73
2021/10/16 05:30:56;;;;;;;;;;;9.60;1.00;;;;;;5075984;28;20351;-73
2021/10/16 05:33:21;;;;;;;;;;;9.60;1.00;;;;;;5072455;28;20373;-73
2021/10/16 05:35:47;;;;;;;;;;;9.60;1.00;;;;;;5070284;28;19916;-74
2021/10/16 05:38:13;;;;;;;;;;;9.60;1.00;;;;;;5069662;28;19913;-73
2021/10/16 05:40:39;;;;;;;;;;;9.60;1.00;;;;;;5069159;28;19942;-71
2021/10/16 05:43:04;;;;;;;;;;;9.60;1.00;;;;;;5067649;28;20564;-73
2021/10/16 05:45:30;;;;;;;;;;;9.60;1.00;;;;;;5069396;28;19926;-74
2021/10/16 05:47:55;;;;;;;;;;;9.60;1.00;;;;;;5070149;28;19939;-72
2021/10/16 05:50:21;;;;;;;;;;;9.60;1.00;;;;;;5069855;28;20313;-73
2021/10/16 05:52:46;;;;;;;;;;;9.60;1.00;;;;;;5069097;28;19913;-73
2021/10/16 05:55:12;;;;;;;;;;;9.60;5.70;;;;;;5069413;28;19916;-72
2021/10/16 05:57:37;;;;;;;;;;;9.60;26.70;;;;;;5069287;28;20003;-73
2021/10/16 06:00:03;;;;;;;;;;;9.60;46.70;;;;;;5069055;28;19912;-74
2021/10/16 06:02:29;;;;;;;;;;;9.60;55.50;;;;;;5068629;28;19923;-74
2021/10/16 06:04:54;;;;;;;;;;;9.70;99.90;;;;;;5069141;28;19916;-72
2021/10/16 06:07:20;;;;;;;;;;;9.70;99.90;;;;;;5069449;28;20015;-71
2021/10/16 06:09:45;;;;;;;;;;;9.70;85.80;;;;;;5069278;28;19943;-74
2021/10/16 06:12:11;;;;;;;;;;;9.80;96.40;;;;;;5068387;28;20688;-73
2021/10/16 06:14:36;;;;;;;;;;;9.80;97.80;;;;;;5068239;28;19965;-74
2021/10/16 06:17:03;;;;;;;;;;;9.90;50.00;;;;;;5069336;28;19912;-75
2021/10/16 06:19:29;;;;;;;;;;;9.90;1.00;;;;;;5068962;28;19919;-74
2021/10/16 06:21:55;;;;;;;;;;;10.00;1.00;;;;;;5068996;28;19912;-72
2021/10/16 06:24:20;;;;;;;;;;;10.10;1.00;;;;;;5069157;28;20342;-74
2021/10/16 06:26:46;;;;;;;;;;;10.20;1.00;;;;;;5069193;28;19980;-72
2021/10/16 06:29:11;;;;;;;;;;;10.20;1.00;;;;;;5071826;28;19935;-74
2021/10/16 06:31:37;;;;;;;;;;;10.30;99.90;;;;;;5068096;28;19920;-73
2021/10/16 06:34:02;;;;;;;;;;;10.30;99.90;;;;;;5061701;28;20028;-74
2021/10/16 06:36:28;;;;;;;;;;;10.40;1.00;;;;;;5067138;28;20265;-73
2021/10/16 06:38:53;;;;;;;;;;;10.50;1.00;;;;;;5069258;28;19977;-72
2021/10/16 06:41:19;;;;;;;;;;;10.50;1.00;;;;;;5064885;28;20000;-74
2021/10/16 06:43:44;;;;;;;;;;;10.60;99.90;;;;;;5061605;28;19939;-74
2021/10/16 06:46:10;;;;;;;;;;;10.70;1.00;;;;;;5065724;28;20323;-71
2021/10/16 06:48:35;;;;;;;;;;;10.70;1.00;;;;;;5067425;28;19916;-74
2021/10/16 06:51:01;;;;;;;;;;;10.60;1.00;;;;;;5064532;28;19917;-72
2021/10/16 06:53:26;;;;;;;;;;;10.50;99.90;;;;;;5066771;28;19917;-73
2021/10/16 06:55:52;;;;;;;;;;;10.50;1.00;;;;;;5068383;28;20010;-74
2021/10/16 06:58:17;;;;;;;;;;;10.60;1.00;;;;;;5066844;28;19912;-73
2021/10/16 07:00:43;;;;;;;;;;;10.60;1.00;;;;;;5067232;28;19912;-74
2021/10/16 07:03:13;;;;;;;;;;;10.70;1.00;;;;;;5061975;28;20544;-72
2021/10/16 07:05:39;;;;;;;;;;;10.70;99.90;;;;;;5065229;28;20235;-73
2021/10/16 07:08:05;;;;;;;;;;;10.80;99.90;;;;;;5059584;28;20003;-73
2021/10/16 07:10:31;;;;;;;;;;;10.90;1.00;;;;;;5068875;28;20369;-74
2021/10/16 07:12:56;;;;;;;;;;;11.00;1.00;;;;;;5066896;28;19916;-73
2021/10/16 07:15:22;;;;;;;;;;;11.10;1.00;;;;;;5067088;28;20018;-72
2021/10/16 07:17:47;;;;;;;;;;;11.30;99.90;;;;;;5068813;28;19917;-73
2021/10/16 07:20:13;;;;;;;;;;;11.40;1.00;;;;;;5068684;28;19966;-75
2021/10/16 07:22:38;;;;;;;;;;;11.60;99.90;;;;;;5068122;28;19916;-73
2021/10/16 07:25:04;;;;;;;;;;;11.60;99.90;;;;;;5068791;28;19946;-74
2021/10/16 07:27:29;;;;;;;;;;;11.60;48.60;;;;;;5068767;28;19924;-74
2021/10/16 07:29:55;;;;;;;;;;;11.50;99.90;;;;;;5068067;28;19938;-75
2021/10/16 07:32:20;;;;;;;;;;;11.50;35.20;;;;;;5068228;28;19920;-73
2021/10/16 07:34:46;;;;;;;;;;;11.40;1.00;;;;;;5069152;28;19923;-75
2021/10/16 07:37:12;;;;;;;;;;;11.40;1.00;;;;;;5072866;28;20026;-74
2021/10/16 07:39:37;;;;;;;;;;;11.40;5.90;;;;;;5070003;28;20095;-74
2021/10/16 07:42:03;;;;;;;;;;;11.40;1.00;;;;;;5069421;28;20549;-73
2021/10/16 07:44:28;;;;;;;;;;;11.40;30.00;;;;;;5067681;28;20373;-75
2021/10/16 07:46:54;;;;;;;;;;;11.50;95.10;;;;;;5069375;28;19920;-75
2021/10/16 07:49:19;;;;;;;;;;;11.50;16.60;;;;;;5071913;28;19927;-74
2021/10/16 07:51:45;;;;;;;;;;;11.60;1.00;;;;;;5071849;28;20485;-73
2021/10/16 07:54:11;;;;;;;;;;;11.70;1.00;;;;;;5069959;28;19945;-73
2021/10/16 07:56:36;;;;;;;;;;;11.80;1.00;;;;;;5072132;28;19913;-73
2021/10/16 07:59:02;;;;;;;;;;;11.90;1.00;;;;;;5069295;28;19997;-73
2021/10/16 08:01:27;;;;;;;;;;;12.10;1.00;;;;;;5071729;28;19913;-73
2021/10/16 08:03:53;;;;;;;;;;;12.20;99.90;;;;;;5071018;28;20073;-73
2021/10/16 08:06:18;;;;;;;;;;;12.30;99.90;;;;;;5075359;28;19916;-73
2021/10/16 08:08:44;;;;;;;;;;;12.40;99.90;;;;;;5074893;28;20292;-73
2021/10/16 08:11:09;;;;;;;;;;;12.50;99.90;;;;;;5072071;28;19954;-72
2021/10/16 08:13:35;;;;;;;;;;;12.60;11.30;;;;;;5068935;28;19959;-73
2021/10/16 08:16:01;;;;;;;;;;;12.50;5.60;;;;;;5071825;28;19926;-73
2021/10/16 08:18:26;;;;;;;;;;;12.70;6.00;;;;;;5071486;28;19919;-73
2021/10/16 08:20:52;;;;;;;;;;;12.80;1.00;;;;;;5071548;28;19939;-74
2021/10/16 08:23:17;;;;;;;;;;;13.00;1.00;;;;;;5070893;28;19934;-73
2021/10/16 08:25:43;;;;;;;;;;;13.10;1.00;;;;;;5071197;28;19997;-72
2021/10/16 08:28:09;;;;;;;;;;;13.30;99.90;;;;;;5075863;28;19957;-71
2021/10/16 08:30:35;;;;;;;;;;;13.80;99.90;;;;;;5070873;28;19995;-72
2021/10/16 08:33:01;;;;;;;;;;;14.70;1.00;;;;;;5070479;28;19916;-73
2021/10/16 08:35:26;;;;;;;;;;;16.10;1.00;;;;;;5071524;28;20015;-73
2021/10/16 08:37:52;;;;;;;;;;;17.30;99.90;;;;;;5070768;28;19952;-71
2021/10/16 08:40:17;;;;;;;;;;;18.20;99.90;;;;;;5071357;28;19955;-74
2021/10/16 08:42:43;;;;;;;;;;;18.10;99.90;;;;;;5069287;28;19955;-73
2021/10/16 08:45:08;;;;;;;;;;;17.80;99.90;;;;;;5070703;28;20388;-71
2021/10/16 08:47:35;;;;;;;;;;;17.70;99.90;;;;;;5070595;28;19939;-73
2021/10/16 08:50:01;;;;;;;;;;;17.00;99.90;;;;;;5070981;28;19969;-72
2021/10/16 08:52:27;;;;;;;;;;;16.70;99.90;;;;;;5070139;28;19916;-72
2021/10/16 08:54:52;;;;;;;;;;;16.50;99.90;;;;;;5070355;28;19924;-72
2021/10/16 08:57:20;;;;;;;;;;;16.50;99.90;;;;;;5069713;28;20003;-73
2021/10/16 08:59:45;;;;;;;;;;;15.70;99.90;;;;;;5068867;28;19927;-73
2021/10/16 09:02:11;;;;;;;;;;;14.90;99.90;;;;;;5070411;28;19917;-73
2021/10/16 09:04:37;;;;;;;;;;;14.70;99.90;;;;;;5070647;28;20369;-73
2021/10/16 09:07:21;;;;;;;;;;;14.60;99.90;;;;;;5071010;28;20019;-73
2021/10/16 09:09:48;;;;;;;;;;;14.70;99.90;;;;;;5065783;28;19912;-72
2021/10/16 09:12:14;;;;;;;;;;;14.90;99.90;;;;;;5061257;28;19921;-71
2021/10/16 09:14:47;;;;;;;;;;;14.90;99.90;;;;;;5065465;28;19939;-72
2021/10/16 09:17:13;;;;;;;;;;;14.90;99.90;;;;;;5069927;28;19948;-73
2021/10/16 09:19:39;;;;;;;;;;;14.90;99.90;;;;;;5066162;28;19917;-73
2021/10/16 09:22:09;;;;;;;;;;;15.00;99.90;;;;;;5068509;28;19963;-73
2021/10/16 09:24:36;;;;;;;;;;;15.10;99.90;;;;;;5066423;28;19963;-73
2021/10/16 09:27:06;;;;;;;;;;;14.90;99.90;;;;;;5064201;28;20361;-72
2021/10/16 09:29:33;;;;;;;;;;;14.80;99.90;;;;;;5066818;28;19921;-72
2021/10/16 09:32:00;;;;;;;;;;;15.00;99.90;;;;;;5065136;28;19997;-73
2021/10/16 09:34:33;;;;;;;;;;;14.70;99.90;;;;;;5066642;28;19913;-73
2021/10/16 09:37:09;;;;;;;;;;;14.70;99.90;;;;;;5066697;28;19912;-73
2021/10/16 09:39:36;;;;;;;;;;;14.70;99.90;;;;;;5069022;28;19912;-73
2021/10/16 09:42:02;;;;;;;;;;;14.60;99.90;;;;;;5067193;28;19916;-73
2021/10/16 09:44:29;;;;;;;;;;;14.50;99.90;;;;;;5062600;28;20400;-74
2021/10/16 09:46:57;;;;;;;;;;;14.30;99.90;;;;;;5065687;28;20369;-74
2021/10/16 09:49:33;;;;;;;;;;;14.20;99.90;;;;;;5064917;28;19918;-74
2021/10/16 09:51:59;;;;;;;;;;;14.10;1.00;;;;;;5065501;28;19920;-73
2021/10/16 09:54:25;;;;;;;;;;;14.30;1.00;;;;;;5063168;28;19924;-74
2021/10/16 09:56:50;;;;;;;;;;;14.30;1.00;;;;;;5069551;28;19916;-73
2021/10/16 09:59:17;;;;;;;;;;;14.30;1.00;;;;;;5068133;28;19975;-73
2021/10/16 10:01:43;;;;;;;;;;;14.30;1.00;;;;;;5069757;28;19921;-74
2021/10/16 10:04:10;;;;;;;;;;;14.10;1.00;;;;;;5069154;28;19912;-74
2021/10/16 10:06:35;;;;;;;;;;;14.00;1.00;;;;;;5070021;28;19928;-74
2021/10/16 10:09:01;;;;;;;;;;;14.00;1.00;;;;;;5069334;28;20069;-74
2021/10/16 10:11:27;;;;;;;;;;;14.00;1.00;;;;;;5069138;28;19938;-74
2021/10/16 10:13:53;;;;;;;;;;;14.00;1.00;;;;;;5067267;28;19912;-73
2021/10/16 10:16:19;;;;;;;;;;;14.00;1.00;;;;;;5069518;28;19927;-73
2021/10/16 10:18:59;;;;;;;;;;;14.10;1.00;;;;;;5069587;28;19924;-74
2021/10/16 10:21:30;;;;;;;;;;;14.10;1.00;;;;;;5062172;28;19978;-73
2021/10/16 10:23:57;;;;;;;;;;;14.00;1.00;;;;;;5068514;28;19920;-73
2021/10/16 10:26:25;;;;;;;;;;;13.90;1.00;;;;;;5069317;28;19931;-72
2021/10/16 10:28:55;;;;;;;;;;;13.90;1.00;;;;;;5068485;28;19913;-71
2021/10/16 10:31:40;;;;;;;;;;;13.90;1.00;;;;;;5069458;28;20689;-73
2021/10/16 10:34:10;;;;;;;;;;;14.20;1.00;;;;;;5067569;28;19917;-72
2021/10/16 10:36:45;;;;;;;;;;;14.40;1.00;;;;;;5069692;28;20408;-70
2021/10/16 10:39:29;;;;;;;;;;;14.60;1.00;;;;;;5068852;28;20388;-70
2021/10/16 10:41:55;;;;;;;;;;;14.80;1.00;;;;;;5067977;28;19921;-70
2021/10/16 10:44:39;;;;;;;;;;;14.80;1.00;;;;;;5067270;28;19919;-70
2021/10/16 10:47:23;;;;;;;;;;;14.80;1.00;;;;;;5069005;28;19946;-71
2021/10/16 10:49:53;;;;;;;;;;;14.80;1.00;;;;;;5069345;28;20357;-71
2021/10/16 10:52:21;;;;;;;;;;;14.90;1.00;;;;;;5068312;28;20319;-71
2021/10/16 10:55:08;;;;;;;;;;;15.20;1.00;;;;;;5068891;28;19920;-71
2021/10/16 10:57:50;;;;;;;;;;;15.30;99.90;;;;;;5060675;28;19936;-72
2021/10/16 11:00:17;;;;;;;;;;;15.20;99.90;;;;;;5066480;28;19986;-73
2021/10/16 11:02:42;;;;;;;;;;;15.20;99.90;;;;;;5067788;28;19912;-72
2021/10/16 11:05:23;;;;;;;;;;;15.10;99.90;;;;;;5071787;28;19973;-71
2021/10/16 11:07:49;;;;;;;;;;;15.20;99.90;;;;;;5076020;28;20034;-73
2021/10/16 11:10:15;;;;;;;;;;;15.20;99.90;;;;;;5068919;28;20427;-74
2021/10/16 11:12:42;;;;;;;;;;;15.30;99.90;;;;;;5066684;28;19970;-73
2021/10/16 11:15:08;;;;;;;;;;;15.30;99.90;;;;;;5068257;28;19912;-73
2021/10/16 11:17:35;;;;;;;;;;;15.20;99.90;;;;;;5069034;28;19916;-72
2021/10/16 11:20:01;;;;;;;;;;;15.00;99.90;;;;;;5067602;28;19912;-72
2021/10/16 11:22:40;;;;;;;;;;;15.20;99.90;;;;;;5064808;28;19927;-75
2021/10/16 11:25:06;;;;;;;;;;;15.20;99.90;;;;;;5068477;28;19985;-72
2021/10/16 11:27:31;;;;;;;;;;;15.70;99.90;;;;;;5069926;28;19920;-72
2021/10/16 11:29:57;;;;;;;;;;;15.90;99.90;;;;;;5068003;28;19916;-72
2021/10/16 11:32:23;;;;;;;;;;;16.10;99.90;;;;;;5073951;28;20570;-73
2021/10/16 11:34:54;;;;;;;;;;;16.30;99.90;;;;;;5074469;28;19942;-74
2021/10/16 11:37:39;;;;;;;;;;;16.20;99.90;;;;;;5076091;28;19932;-74
2021/10/16 11:40:06;;;;;;;;;;;16.50;99.90;;;;;;5067119;28;19913;-73
2021/10/16 11:42:32;;;;;;;;;;;16.90;99.90;;;;;;5073234;28;20030;-72
2021/10/16 11:44:57;;;;;;;;;;;17.00;99.90;;;;;;5074045;28;20007;-71
2021/10/16 11:47:23;;;;;;;;;;;17.00;99.90;;;;;;5067112;28;20030;-71
2021/10/16 11:49:49;;;;;;;;;;;17.10;99.90;;;;;;5075339;28;20003;-73
2021/10/16 11:52:24;;;;;;;;;;;16.90;99.90;;;;;;5074247;28;19962;-72
2021/10/16 11:55:08;;;;;;;;;;;16.70;99.90;;;;;;5074848;28;19916;-73
2021/10/16 11:57:34;;;;;;;;;;;16.70;99.90;;;;;;5072523;28;20035;-72
2021/10/16 12:00:35;;;;;;;;;;;16.60;99.90;;;;;;5075095;28;20621;-72
2021/10/16 12:03:06;;;;;;;;;;;16.70;99.90;;;;;;5016361;28;20402;-70
2021/10/16 12:05:32;;;;;;;;;;;16.40;99.90;;;;;;5062882;28;19961;-68
2021/10/16 12:08:10;;;;;;;;;;;16.00;99.90;;;;;;5070542;28;19935;-72
2021/10/16 12:10:37;;;;;;;;;;;16.10;99.90;;;;;;5071138;28;19936;-72
2021/10/16 12:13:02;;;;;;;;;;;16.20;99.90;;;;;;5070764;28;19959;-72
2021/10/16 12:15:34;;;;;;;;;;;16.10;99.90;;;;;;5073628;28;19952;-72
2021/10/16 12:17:59;;;;;;;;;;;15.90;99.90;;;;;;5071904;28;19912;-68
2021/10/16 12:20:25;;;;;;;;;;;15.70;99.90;;;;;;5070749;28;19920;-71
2021/10/16 12:22:57;;;;;;;;;;;15.30;99.90;;;;;;5071866;28;19916;-71
2021/10/16 12:25:23;;;;;;;;;;;15.10;99.90;;;;;;5072149;28;19999;-72
2021/10/16 12:28:02;;;;;;;;;;;15.00;99.90;;;;;;5066842;28;20010;-69
2021/10/16 12:30:27;;;;;;;;;;;14.80;99.90;;;;;;5069483;28;19958;-72
2021/10/16 12:33:11;;;;;;;;;;;14.60;99.90;;;;;;5071965;28;19912;-73
2021/10/16 12:35:36;;;;;;;;;;;14.50;99.90;;;;;;5070539;28;19913;-73
2021/10/16 12:38:02;;;;;;;;;;;14.40;99.90;;;;;;5081802;28;20003;-71
2021/10/16 12:40:38;;;;;;;;;;;14.40;99.90;;;;;;5088923;28;20353;-73
2021/10/16 12:43:04;;;;;;;;;;;14.40;99.90;;;;;;5086323;28;20451;-71
2021/10/16 12:45:37;;;;;;;;;;;14.30;99.90;;;;;;5089325;28;19937;-71
2021/10/16 12:48:21;;;;;;;;;;;14.20;99.90;;;;;;5077382;28;19958;-72
2021/10/16 12:50:50;;;;;;;;;;;14.20;99.90;;;;;;5069541;28;19915;-71
2021/10/16 12:53:16;;;;;;;;;;;14.10;99.90;;;;;;5068495;28;19916;-73
2021/10/16 12:55:42;;;;;;;;;;;14.00;99.90;;;;;;5069045;28;19916;-70
2021/10/16 12:58:10;;;;;;;;;;;14.00;99.90;;;;;;5068119;28;19973;-71
2021/10/16 13:00:36;;;;;;;;;;;13.80;99.90;;;;;;5068329;28;19946;-73
2021/10/16 13:03:05;;;;;;;;;;;13.80;99.90;;;;;;5067697;28;19912;-72
2021/10/16 13:05:31;;;;;;;;;;;13.90;99.90;;;;;;5068672;28;20014;-74
2021/10/16 13:07:57;;;;;;;;;;;14.00;99.90;;;;;;5068465;28;20011;-72
2021/10/16 13:10:22;;;;;;;;;;;14.00;99.90;;;;;;5068278;28;19912;-71
2021/10/16 13:12:48;;;;;;;;;;;14.10;99.90;;;;;;5066688;28;19915;-68
2021/10/16 13:15:14;;;;;;;;;;;14.30;99.90;;;;;;5067417;28;20023;-72
2021/10/16 13:17:39;;;;;;;;;;;14.30;99.90;;;;;;5068493;28;19920;-72
2021/10/16 13:20:05;;;;;;;;;;;14.30;99.90;;;;;;5068278;28;20003;-72
2021/10/16 13:22:31;;;;;;;;;;;14.20;99.90;;;;;;5067430;28;19909;-72
2021/10/16 13:24:59;;;;;;;;;;;14.20;99.90;;;;;;5067935;28;20245;-70
2021/10/16 13:27:24;;;;;;;;;;;14.20;99.90;;;;;;5067315;28;20020;-71
2021/10/16 13:29:50;;;;;;;;;;;14.00;99.90;;;;;;5071992;28;20003;-73
2021/10/16 13:32:15;;;;;;;;;;;13.90;99.90;;;;;;5067435;28;19920;-73
2021/10/16 13:34:42;;;;;;;;;;;14.00;99.90;;;;;;5067741;28;19981;-72
2021/10/16 13:37:08;;;;;;;;;;;14.00;99.90;;;;;;5066885;28;20492;-70
2021/10/16 13:39:33;;;;;;;;;;;14.10;99.90;;;;;;5067189;28;20003;-69
2021/10/16 13:41:59;;;;;;;;;;;14.10;99.90;;;;;;5066305;28;20377;-72
2021/10/16 13:44:25;;;;;;;;;;;14.10;99.90;;;;;;5065655;28;19925;-71
2021/10/16 13:46:50;;;;;;;;;;;14.00;99.90;;;;;;5067393;28;19927;-73
2021/10/16 13:49:16;;;;;;;;;;;13.90;99.90;;;;;;5064369;28;19913;-73
2021/10/16 13:51:42;;;;;;;;;;;13.90;99.90;;;;;;5061798;28;20062;-69
2021/10/16 13:54:07;;;;;;;;;;;14.00;99.90;;;;;;5061883;28;20019;-74
2021/10/16 13:56:34;;;;;;;;;;;14.20;99.90;;;;;;5063167;28;19966;-73
2021/10/16 13:58:59;;;;;;;;;;;14.30;99.90;;;;;;5062108;28;19912;-74
2021/10/16 14:01:25;;;;;;;;;;;14.40;99.90;;;;;;5062334;28;20233;-71
2021/10/16 14:03:50;;;;;;;;;;;14.20;99.90;;;;;;5065626;28;20097;-73
2021/10/16 14:06:16;;;;;;;;;;;14.00;99.90;;;;;;5075072;28;19917;-70
2021/10/16 14:08:41;;;;;;;;;;;13.80;99.90;;;;;;5064925;28;19912;-75
2021/10/16 14:11:07;;;;;;;;;;;13.60;99.90;;;;;;5067461;28;19923;-74
2021/10/16 14:13:32;;;;;;;;;;;13.60;99.90;;;;;;5064571;28;19920;-74
2021/10/16 14:15:58;;;;;;;;;;;13.60;99.90;;;;;;5067363;28;19916;-72
2021/10/16 14:18:23;;;;;;;;;;;13.60;99.90;;;;;;5066645;28;19913;-74
2021/10/16 14:20:49;;;;;;;;;;;13.50;99.90;;;;;;5067389;28;19923;-75
2021/10/16 14:23:14;;;;;;;;;;;13.40;99.90;;;;;;5065625;28;19970;-73
2021/10/16 14:25:40;;;;;;;;;;;13.40;99.90;;;;;;5066346;28;19916;-74